Time;durP1;ratioP1;P1;durP2;ratioP2;P2;SDS_P1;SDS_P2;PMS_P1;PMS_P2;Temp;Humidity;BMP_temperature;BMP_pressure;BME280_temperature;BME280_humidity;BME280_pressure;Samples;Min_cycle;Max_cycle;Signal;HPM_P1;HPM_P2
2023/05/08 00:00:03;;;;;;;13.77;13.07;;;;;;;;;;5039042;28;20131;-62
2023/05/08 00:02:29;;;;;;;13.50;12.80;;;;;;;;;;5037685;28;20477;-63
2023/05/08 00:04:54;;;;;;;14.27;13.52;;;;;;;;;;5050794;28;20062;-63
2023/05/08 00:07:20;;;;;;;14.60;13.80;;;;;;;;;;5044709;28;20021;-63
2023/05/08 00:09:45;;;;;;;14.20;13.40;;;;;;;;;;5038984;28;20066;-62
2023/05/08 00:12:10;;;;;;;13.32;12.73;;;;;;;;;;5041954;28;20022;-64
2023/05/08 00:14:36;;;;;;;14.07;13.38;;;;;;;;;;5046166;28;20100;-63
2023/05/08 00:17:01;;;;;;;14.00;13.30;;;;;;;;;;5040322;28;20025;-63
2023/05/08 00:19:27;;;;;;;13.73;13.02;;;;;;;;;;5034853;28;20164;-63
2023/05/08 00:21:52;;;;;;;13.85;13.15;;;;;;;;;;5022791;28;20022;-64
2023/05/08 00:24:17;;;;;;;13.68;12.98;;;;;;;;;;5033341;28;20045;-63
2023/05/08 00:26:44;;;;;;;13.60;12.90;;;;;;;;;;5034905;28;20022;-63
2023/05/08 00:29:10;;;;;;;13.90;13.20;;;;;;;;;;5050538;28;20012;-62
2023/05/08 00:31:35;;;;;;;13.48;12.77;;;;;;;;;;5037443;28;20453;-64
2023/05/08 00:34:00;;;;;;;13.80;13.10;;;;;;;;;;5033259;28;20743;-64
2023/05/08 00:36:26;;;;;;;13.00;12.30;;;;;;;;;;5034160;28;20061;-64
2023/05/08 00:38:51;;;;;;;13.80;13.10;;;;;;;;;;5034867;28;20021;-64
2023/05/08 00:41:16;;;;;;;13.85;13.15;;;;;;;;;;5034609;28;20029;-64
2023/05/08 00:43:43;;;;;;;14.32;13.52;;;;;;;;;;5036639;28;20109;-63
2023/05/08 00:46:08;;;;;;;13.45;12.75;;;;;;;;;;5044711;28;20021;-64
2023/05/08 00:48:34;;;;;;;12.82;12.23;;;;;;;;;;5044452;28;20357;-63
2023/05/08 00:51:01;;;;;;;13.30;12.60;;;;;;;;;;5034375;28;20044;-63
2023/05/08 00:53:27;;;;;;;13.75;13.05;;;;;;;;;;5033600;28;20382;-63
2023/05/08 00:55:52;;;;;;;14.23;13.43;;;;;;;;;;5038693;28;20155;-63
2023/05/08 00:58:18;;;;;;;13.43;12.73;;;;;;;;;;5029670;28;20028;-63
2023/05/08 01:00:44;;;;;;;14.20;13.40;;;;;;;;;;5035534;28;20041;-63
2023/05/08 01:03:10;;;;;;;13.68;12.98;;;;;;;;;;5033756;28;20036;-63
2023/05/08 01:05:36;;;;;;;13.82;13.13;;;;;;;;;;5032106;28;20048;-63
2023/05/08 01:08:03;;;;;;;14.55;13.73;;;;;;;;;;5043648;28;20056;-64
2023/05/08 01:10:35;;;;;;;13.52;12.82;;;;;;;;;;5033357;28;20645;-62
2023/05/08 01:13:19;;;;;;;13.18;12.55;;;;;;;;;;5037447;28;20104;-63
2023/05/08 01:15:50;;;;;;;14.35;13.55;;;;;;;;;;5043884;28;20033;-63
2023/05/08 01:18:22;;;;;;;14.13;13.32;;;;;;;;;;5031067;28;20049;-63
2023/05/08 01:21:07;;;;;;;13.30;12.68;;;;;;;;;;5031117;28;20025;-63
2023/05/08 01:23:51;;;;;;;13.68;12.98;;;;;;;;;;5040089;28;20049;-64
2023/05/08 01:26:37;;;;;;;14.30;13.50;;;;;;;;;;5016669;28;20056;-63
2023/05/08 01:29:21;;;;;;;14.23;13.43;;;;;;;;;;5037633;28;20037;-64
2023/05/08 01:31:52;;;;;;;14.30;13.50;;;;;;;;;;5047146;28;20018;-63
2023/05/08 01:34:23;;;;;;;14.20;13.40;;;;;;;;;;5033847;28;20481;-63
2023/05/08 01:37:10;;;;;;;13.10;12.40;;;;;;;;;;5041726;28;20508;-64
2023/05/08 01:39:43;;;;;;;13.20;12.50;;;;;;;;;;5033073;28;20021;-64
2023/05/08 01:42:16;;;;;;;13.57;12.88;;;;;;;;;;5022171;28;20026;-64
2023/05/08 01:44:44;;;;;;;13.38;12.68;;;;;;;;;;5031953;28;20040;-63
2023/05/08 01:47:10;;;;;;;13.30;12.60;;;;;;;;;;5035652;28;20547;-64
2023/05/08 01:49:41;;;;;;;14.02;13.23;;;;;;;;;;5033347;28;20106;-64
2023/05/08 01:52:09;;;;;;;13.27;12.57;;;;;;;;;;5032322;28;20500;-63
2023/05/08 01:54:47;;;;;;;13.15;12.52;;;;;;;;;;5027696;28;20025;-65
2023/05/08 01:57:13;;;;;;;13.65;12.95;;;;;;;;;;5030260;28;20159;-63
2023/05/08 01:59:40;;;;;;;13.75;12.95;;;;;;;;;;5036621;28;20135;-64
2023/05/08 02:02:06;;;;;;;13.90;13.13;;;;;;;;;;5040122;28;20035;-64
2023/05/08 02:04:32;;;;;;;14.65;13.75;;;;;;;;;;5035727;28;20017;-64
2023/05/08 02:06:58;;;;;;;13.60;12.90;;;;;;;;;;5038661;28;20389;-64
2023/05/08 02:09:24;;;;;;;13.90;13.10;;;;;;;;;;5040222;28;20009;-64
2023/05/08 02:11:51;;;;;;;12.73;12.13;;;;;;;;;;5033174;28;20021;-63
2023/05/08 02:14:18;;;;;;;13.68;12.98;;;;;;;;;;5032717;28;20065;-64
2023/05/08 02:16:43;;;;;;;13.13;12.48;;;;;;;;;;5039371;28;20112;-64
2023/05/08 02:19:09;;;;;;;13.50;12.80;;;;;;;;;;5032750;28;20101;-63
2023/05/08 02:21:35;;;;;;;13.90;13.10;;;;;;;;;;5040325;28;20076;-63
2023/05/08 02:24:02;;;;;;;12.85;12.25;;;;;;;;;;5033936;28;20392;-64
2023/05/08 02:26:27;;;;;;;13.65;12.95;;;;;;;;;;5027334;28;20432;-63
2023/05/08 02:28:54;;;;;;;13.35;12.65;;;;;;;;;;5032722;28;20026;-63
2023/05/08 02:31:20;;;;;;;14.00;13.20;;;;;;;;;;5022996;28;20633;-64
2023/05/08 02:33:46;;;;;;;13.77;13.05;;;;;;;;;;5030393;28;20104;-63
2023/05/08 02:36:12;;;;;;;13.57;12.88;;;;;;;;;;5038206;28;20247;-64
2023/05/08 02:38:40;;;;;;;13.80;13.10;;;;;;;;;;5033954;28;20017;-65
2023/05/08 02:41:06;;;;;;;13.68;12.98;;;;;;;;;;5043474;28;20010;-63
2023/05/08 02:43:32;;;;;;;14.15;13.35;;;;;;;;;;5029248;28;20017;-63
2023/05/08 02:46:06;;;;;;;13.77;13.02;;;;;;;;;;5027878;28;20043;-63
2023/05/08 02:48:31;;;;;;;;;;;;;;;;;;5034767;28;20036;-63
2023/05/08 02:51:03;;;;;;;12.53;11.93;;;;;;;;;;5045167;28;20384;-63
2023/05/08 02:53:34;;;;;;;13.40;12.70;;;;;;;;;;5018026;28;20017;-62
2023/05/08 02:56:11;;;;;;;13.20;12.50;;;;;;;;;;5025353;28;20388;-63
2023/05/08 02:58:41;;;;;;;12.68;12.07;;;;;;;;;;5035171;28;20017;-64
2023/05/08 03:01:20;;;;;;;13.23;12.52;;;;;;;;;;5029616;28;20052;-64
2023/05/08 03:03:48;;;;;;;13.50;12.80;;;;;;;;;;5024752;28;20021;-64
2023/05/08 03:06:19;;;;;;;13.30;12.60;;;;;;;;;;5028685;28;20025;-63
2023/05/08 03:08:46;;;;;;;13.48;12.75;;;;;;;;;;5042445;28;20023;-64
2023/05/08 03:11:13;;;;;;;13.60;12.90;;;;;;;;;;5034702;28;20512;-63
2023/05/08 03:13:40;;;;;;;14.25;13.45;;;;;;;;;;5039543;28;20025;-63
2023/05/08 03:16:08;;;;;;;13.75;13.00;;;;;;;;;;5040047;28;20021;-64
2023/05/08 03:18:41;;;;;;;13.20;12.50;;;;;;;;;;5034706;28;20163;-63
2023/05/08 03:21:07;;;;;;;13.40;12.70;;;;;;;;;;5034949;28;20021;-64
2023/05/08 03:23:34;;;;;;;13.10;12.40;;;;;;;;;;5042596;28;20374;-64
2023/05/08 03:25:59;;;;;;;13.23;12.52;;;;;;;;;;5030524;28;20476;-64
2023/05/08 03:28:26;;;;;;;13.75;12.98;;;;;;;;;;5038359;28;20014;-64
2023/05/08 03:30:52;;;;;;;13.00;12.32;;;;;;;;;;5038094;28;20021;-64
2023/05/08 03:33:18;;;;;;;13.05;12.35;;;;;;;;;;5034076;28;20052;-63
2023/05/08 03:35:44;;;;;;;13.40;12.70;;;;;;;;;;5047094;28;20025;-64
2023/05/08 03:38:09;;;;;;;13.65;12.93;;;;;;;;;;5034036;28;20535;-66
2023/05/08 03:40:35;;;;;;;13.80;13.02;;;;;;;;;;5031264;28;20021;-64
2023/05/08 03:43:01;;;;;;;14.00;13.20;;;;;;;;;;5027954;28;20018;-62
2023/05/08 03:45:27;;;;;;;13.07;12.40;;;;;;;;;;5028921;28;20028;-63
2023/05/08 03:47:53;;;;;;;12.85;12.20;;;;;;;;;;5029316;28;20041;-63
2023/05/08 03:50:19;;;;;;;14.00;13.20;;;;;;;;;;5046028;28;20017;-63
2023/05/08 03:52:44;;;;;;;14.05;13.25;;;;;;;;;;5042879;28;20021;-63
2023/05/08 03:55:10;;;;;;;13.55;12.85;;;;;;;;;;5032116;28;20025;-63
2023/05/08 03:57:40;;;;;;;13.40;12.70;;;;;;;;;;5031426;28;20056;-63
2023/05/08 04:00:12;;;;;;;14.10;13.30;;;;;;;;;;5028673;28;20120;-64
2023/05/08 04:02:40;;;;;;;13.60;12.90;;;;;;;;;;5026418;28;20483;-63
2023/05/08 04:05:25;;;;;;;14.18;13.35;;;;;;;;;;5030658;28;20151;-62
2023/05/08 04:08:03;;;;;;;15.18;14.23;;;;;;;;;;5027961;28;20042;-64
2023/05/08 04:10:30;;;;;;;13.77;13.00;;;;;;;;;;5032559;28;20655;-63
2023/05/08 04:13:00;;;;;;;14.73;13.82;;;;;;;;;;5029793;28;20426;-63
2023/05/08 04:15:26;;;;;;;13.70;13.00;;;;;;;;;;5034244;28;20155;-63
2023/05/08 04:17:58;;;;;;;13.55;12.85;;;;;;;;;;5030093;28;20083;-64
2023/05/08 04:20:24;;;;;;;14.27;13.48;;;;;;;;;;5032758;28;20029;-63
2023/05/08 04:22:52;;;;;;;13.63;12.88;;;;;;;;;;5032328;28;20484;-63
2023/05/08 04:25:18;;;;;;;14.82;13.93;;;;;;;;;;5031484;28;20037;-64
2023/05/08 04:27:44;;;;;;;13.32;12.63;;;;;;;;;;5032295;28;20028;-64
2023/05/08 04:30:09;;;;;;;13.15;12.48;;;;;;;;;;5033401;28;20108;-63
2023/05/08 04:32:36;;;;;;;13.05;12.38;;;;;;;;;;5027796;28;20032;-64
2023/05/08 04:35:02;;;;;;;13.60;12.82;;;;;;;;;;5042071;28;20032;-65
2023/05/08 04:37:28;;;;;;;13.32;12.63;;;;;;;;;;5042611;28;20017;-63
2023/05/08 04:39:53;;;;;;;13.82;13.02;;;;;;;;;;5035646;28;20048;-63
2023/05/08 04:42:19;;;;;;;14.57;13.68;;;;;;;;;;5034139;28;20493;-63
2023/05/08 04:44:46;;;;;;;13.50;12.80;;;;;;;;;;5032761;28;20385;-63
2023/05/08 04:47:11;;;;;;;14.23;13.43;;;;;;;;;;5047452;28;20009;-64
2023/05/08 04:49:36;;;;;;;14.55;13.65;;;;;;;;;;5038732;28;20024;-63
2023/05/08 04:52:01;;;;;;;14.48;13.57;;;;;;;;;;5038081;28;20393;-64
2023/05/08 04:54:27;;;;;;;14.25;13.45;;;;;;;;;;5033716;28;20159;-64
2023/05/08 04:56:52;;;;;;;15.60;14.60;;;;;;;;;;5034186;28;20392;-64
2023/05/08 04:59:17;;;;;;;14.02;13.23;;;;;;;;;;5041480;28;20029;-63
2023/05/08 05:01:44;;;;;;;14.48;13.63;;;;;;;;;;5033982;28;20064;-64
2023/05/08 05:04:10;;;;;;;13.93;13.13;;;;;;;;;;5033323;28;20590;-63
2023/05/08 05:06:35;;;;;;;13.85;13.05;;;;;;;;;;5036533;28;20104;-64
2023/05/08 05:09:00;;;;;;;13.93;13.15;;;;;;;;;;5028860;28;20028;-63
2023/05/08 05:11:26;;;;;;;14.35;13.52;;;;;;;;;;5035835;28;20048;-64
2023/05/08 05:13:51;;;;;;;14.73;13.82;;;;;;;;;;5042522;28;20029;-64
2023/05/08 05:16:17;;;;;;;13.93;13.13;;;;;;;;;;5034145;28;20025;-63
2023/05/08 05:18:42;;;;;;;14.05;13.25;;;;;;;;;;5035802;28;20030;-64
2023/05/08 05:21:07;;;;;;;15.85;14.77;;;;;;;;;;5026126;28;20437;-64
2023/05/08 05:23:32;;;;;;;13.23;12.52;;;;;;;;;;5032948;28;20025;-64
2023/05/08 05:25:58;;;;;;;13.50;12.80;;;;;;;;;;5032578;28;20022;-64
2023/05/08 05:28:23;;;;;;;15.15;14.18;;;;;;;;;;5039942;28;20030;-64
2023/05/08 05:30:48;;;;;;;13.88;13.07;;;;;;;;;;5033071;28;20076;-65
2023/05/08 05:33:14;;;;;;;14.85;13.95;;;;;;;;;;5024169;28;20041;-64
2023/05/08 05:35:39;;;;;;;13.73;12.95;;;;;;;;;;5032128;28;20032;-63
2023/05/08 05:38:04;;;;;;;13.75;12.98;;;;;;;;;;5032698;28;20074;-63
2023/05/08 05:40:30;;;;;;;14.15;13.35;;;;;;;;;;5033217;28;20026;-66
2023/05/08 05:42:55;;;;;;;13.70;12.95;;;;;;;;;;5047139;28;20025;-64
2023/05/08 05:45:20;;;;;;;14.70;13.80;;;;;;;;;;5033428;28;20040;-65
2023/05/08 05:47:52;;;;;;;15.07;14.15;;;;;;;;;;5032252;28;20013;-63
2023/05/08 05:50:18;;;;;;;13.80;13.02;;;;;;;;;;5035685;28;20044;-64
2023/05/08 05:52:44;;;;;;;14.43;13.57;;;;;;;;;;5046526;28;20025;-64
2023/05/08 05:55:09;;;;;;;14.15;13.35;;;;;;;;;;5042034;28;20092;-64
2023/05/08 05:57:35;;;;;;;13.32;12.63;;;;;;;;;;5038445;28;20025;-64
2023/05/08 06:00:00;;;;;;;14.68;13.77;;;;;;;;;;5033240;28;20077;-63
2023/05/08 06:02:26;;;;;;;13.82;13.02;;;;;;;;;;5042270;28;20032;-63
2023/05/08 06:04:51;;;;;;;13.80;13.00;;;;;;;;;;5033667;28;20025;-63
2023/05/08 06:07:16;;;;;;;13.57;12.77;;;;;;;;;;5043620;28;20461;-64
2023/05/08 06:09:42;;;;;;;14.18;13.38;;;;;;;;;;5036484;28;20066;-65
2023/05/08 06:12:07;;;;;;;13.38;12.68;;;;;;;;;;5041272;28;20449;-63
2023/05/08 06:14:33;;;;;;;13.88;13.07;;;;;;;;;;5041810;28;20028;-63
2023/05/08 06:16:58;;;;;;;13.20;12.50;;;;;;;;;;5041314;28;20028;-64
2023/05/08 06:19:27;;;;;;;14.02;13.23;;;;;;;;;;5022421;28;20021;-64
2023/05/08 06:21:52;;;;;;;13.90;13.10;;;;;;;;;;5035583;28;20519;-64
2023/05/08 06:24:18;;;;;;;13.73;12.98;;;;;;;;;;5030390;28;20092;-64
2023/05/08 06:26:43;;;;;;;13.32;12.63;;;;;;;;;;5065443;28;20097;-64
2023/05/08 06:29:08;;;;;;;13.75;12.98;;;;;;;;;;5039941;28;20037;-64
2023/05/08 06:31:33;;;;;;;13.80;13.05;;;;;;;;;;5026569;28;20024;-63
2023/05/08 06:33:59;;;;;;;14.80;13.90;;;;;;;;;;5029648;28;20029;-64
2023/05/08 06:36:25;;;;;;;13.60;12.90;;;;;;;;;;5041444;28;20021;-63
2023/05/08 06:38:51;;;;;;;13.55;12.82;;;;;;;;;;5037782;28;20092;-63
2023/05/08 06:41:16;;;;;;;14.27;13.40;;;;;;;;;;5050231;28;20047;-64
2023/05/08 06:43:41;;;;;;;14.82;13.93;;;;;;;;;;5024419;28;20028;-64
2023/05/08 06:46:07;;;;;;;14.57;13.68;;;;;;;;;;5040723;28;20018;-64
2023/05/08 06:48:32;;;;;;;12.82;12.20;;;;;;;;;;5037326;28;20025;-63
2023/05/08 06:50:57;;;;;;;14.30;13.48;;;;;;;;;;5039523;28;20029;-64
2023/05/08 06:53:23;;;;;;;13.65;12.88;;;;;;;;;;5045387;28;20021;-64
2023/05/08 06:55:48;;;;;;;13.65;12.95;;;;;;;;;;5046046;28;20389;-63
2023/05/08 06:58:14;;;;;;;14.57;13.70;;;;;;;;;;5033324;28;20010;-63
2023/05/08 07:00:39;;;;;;;14.13;13.32;;;;;;;;;;5041273;28;20170;-64
2023/05/08 07:03:04;;;;;;;13.75;13.02;;;;;;;;;;5031369;28;20051;-64
2023/05/08 07:05:30;;;;;;;13.35;12.65;;;;;;;;;;5039172;28;20570;-63
2023/05/08 07:07:55;;;;;;;14.05;13.25;;;;;;;;;;5029873;28;20381;-63
2023/05/08 07:10:21;;;;;;;14.68;13.77;;;;;;;;;;5041084;28;20045;-63
2023/05/08 07:12:50;;;;;;;14.45;13.63;;;;;;;;;;5038549;28;20092;-63
2023/05/08 07:15:15;;;;;;;14.52;13.73;;;;;;;;;;5047148;28;20116;-64
2023/05/08 07:17:41;;;;;;;13.88;13.15;;;;;;;;;;5046360;28;20148;-63
2023/05/08 07:20:07;;;;;;;14.15;13.35;;;;;;;;;;5044926;28;20064;-63
2023/05/08 07:22:32;;;;;;;14.88;13.98;;;;;;;;;;5032844;28;20033;-63
2023/05/08 07:24:57;;;;;;;14.05;13.25;;;;;;;;;;5042929;28;20025;-63
2023/05/08 07:27:23;;;;;;;13.80;13.02;;;;;;;;;;5031900;28;20014;-64
2023/05/08 07:29:48;;;;;;;13.75;13.05;;;;;;;;;;5045842;28;20020;-63
2023/05/08 07:32:14;;;;;;;14.20;13.40;;;;;;;;;;5036809;28;20681;-63
2023/05/08 07:34:40;;;;;;;14.68;13.80;;;;;;;;;;5037870;28;20020;-63
2023/05/08 07:37:07;;;;;;;18.20;16.95;;;;;;;;;;5035700;28;20033;-64
2023/05/08 07:39:33;;;;;;;15.43;14.55;;;;;;;;;;5038668;28;20040;-63
2023/05/08 07:41:58;;;;;;;15.23;14.43;;;;;;;;;;5028492;28;20466;-63
2023/05/08 07:44:23;;;;;;;15.50;14.60;;;;;;;;;;5042439;28;20050;-64
2023/05/08 07:46:48;;;;;;;17.15;15.95;;;;;;;;;;5032370;28;20017;-63
2023/05/08 07:49:14;;;;;;;16.13;15.13;;;;;;;;;;5045265;28;20021;-63
2023/05/08 07:51:40;;;;;;;15.18;14.25;;;;;;;;;;5044568;28;20705;-64
2023/05/08 07:54:05;;;;;;;14.40;13.60;;;;;;;;;;5026570;28;20484;-63
2023/05/08 07:56:30;;;;;;;15.75;14.75;;;;;;;;;;5042171;28;20056;-65
2023/05/08 07:58:56;;;;;;;15.15;14.25;;;;;;;;;;5039278;28;20018;-65
2023/05/08 08:01:21;;;;;;;16.13;15.10;;;;;;;;;;5030949;28;20520;-64
2023/05/08 08:03:47;;;;;;;14.77;13.98;;;;;;;;;;5037475;28;20017;-65
2023/05/08 08:06:12;;;;;;;15.85;14.85;;;;;;;;;;5030520;28;20143;-64
2023/05/08 08:08:38;;;;;;;15.98;15.07;;;;;;;;;;5045426;28;20031;-64
2023/05/08 08:11:03;;;;;;;16.60;15.60;;;;;;;;;;5034517;28;20017;-64
2023/05/08 08:13:29;;;;;;;17.30;16.20;;;;;;;;;;5044317;28;20013;-64
2023/05/08 08:15:54;;;;;;;17.30;16.20;;;;;;;;;;5023190;28;20354;-64
2023/05/08 08:18:19;;;;;;;17.10;16.05;;;;;;;;;;5034636;28;20017;-64
2023/05/08 08:20:45;;;;;;;15.98;15.07;;;;;;;;;;5029483;28;20060;-63
2023/05/08 08:23:10;;;;;;;16.40;15.40;;;;;;;;;;5022803;28;20481;-64
2023/05/08 08:25:35;;;;;;;16.77;15.73;;;;;;;;;;5033959;28;20017;-63
2023/05/08 08:28:01;;;;;;;16.27;15.27;;;;;;;;;;5033920;28;20532;-65
2023/05/08 08:30:26;;;;;;;15.48;14.57;;;;;;;;;;5045104;28;20009;-63
2023/05/08 08:32:51;;;;;;;15.68;14.77;;;;;;;;;;5031002;28;20026;-63
2023/05/08 08:35:17;;;;;;;16.20;15.20;;;;;;;;;;5040704;28;20389;-63
2023/05/08 08:37:42;;;;;;;16.00;15.05;;;;;;;;;;5044347;28;20041;-66
2023/05/08 08:40:08;;;;;;;17.33;16.20;;;;;;;;;;5035331;28;20013;-64
2023/05/08 08:42:33;;;;;;;16.05;15.15;;;;;;;;;;5035044;28;20021;-64
2023/05/08 08:44:59;;;;;;;17.75;16.55;;;;;;;;;;5044434;28;20013;-64
2023/05/08 08:47:28;;;;;;;16.02;15.07;;;;;;;;;;5044747;28;20005;-64
2023/05/08 08:49:54;;;;;;;16.58;15.50;;;;;;;;;;5034747;28;20439;-64
2023/05/08 08:52:29;;;;;;;15.73;14.82;;;;;;;;;;5047318;28;20091;-64
2023/05/08 08:54:56;;;;;;;17.10;15.90;;;;;;;;;;5028324;28;20037;-63
2023/05/08 08:57:22;;;;;;;15.20;14.40;;;;;;;;;;5041838;28;20022;-64
2023/05/08 08:59:48;;;;;;;15.02;14.23;;;;;;;;;;5032376;28;20042;-63
2023/05/08 09:02:16;;;;;;;16.13;15.13;;;;;;;;;;5041858;28;20119;-64
2023/05/08 09:04:41;;;;;;;15.32;14.43;;;;;;;;;;5036782;28;20037;-64
2023/05/08 09:07:07;;;;;;;15.00;14.20;;;;;;;;;;5047717;28;20009;-64
2023/05/08 09:09:34;;;;;;;14.82;14.02;;;;;;;;;;5038634;28;20018;-64
2023/05/08 09:12:00;;;;;;;15.52;14.60;;;;;;;;;;5046814;28;20488;-63
2023/05/08 09:14:25;;;;;;;14.98;14.18;;;;;;;;;;5037100;28;20079;-64
2023/05/08 09:16:52;;;;;;;14.60;13.80;;;;;;;;;;5045067;28;20032;-63
2023/05/08 09:19:17;;;;;;;14.73;13.93;;;;;;;;;;5039167;28;20064;-65
2023/05/08 09:21:43;;;;;;;14.07;13.38;;;;;;;;;;5048075;28;20053;-64
2023/05/08 09:24:08;;;;;;;14.75;13.95;;;;;;;;;;5035552;28;20025;-66
2023/05/08 09:26:38;;;;;;;14.60;13.80;;;;;;;;;;5040325;28;20017;-64
2023/05/08 09:29:12;;;;;;;14.70;13.90;;;;;;;;;;5040207;28;20017;-65
2023/05/08 09:31:39;;;;;;;15.98;14.98;;;;;;;;;;5043112;28;20382;-64
2023/05/08 09:34:05;;;;;;;16.52;15.43;;;;;;;;;;5031858;28;20085;-64
2023/05/08 09:36:30;;;;;;;14.48;13.68;;;;;;;;;;5037058;28;20168;-64
2023/05/08 09:38:57;;;;;;;16.13;15.13;;;;;;;;;;5036383;28;20013;-64
2023/05/08 09:41:23;;;;;;;15.65;14.70;;;;;;;;;;5036581;28;20095;-65
2023/05/08 09:44:04;;;;;;;15.75;14.80;;;;;;;;;;5036345;28;20085;-64
2023/05/08 09:46:30;;;;;;;14.60;13.80;;;;;;;;;;5032756;28;20477;-64
2023/05/08 09:48:57;;;;;;;15.57;14.68;;;;;;;;;;5039157;28;20025;-63
2023/05/08 09:51:23;;;;;;;16.10;15.10;;;;;;;;;;5039240;28;20021;-64
2023/05/08 09:53:50;;;;;;;15.50;14.60;;;;;;;;;;5044591;28;20480;-64
2023/05/08 09:56:15;;;;;;;16.25;15.35;;;;;;;;;;5051084;28;20033;-64
2023/05/08 09:58:42;;;;;;;15.77;14.93;;;;;;;;;;5029274;28;20013;-65
2023/05/08 10:01:08;;;;;;;17.05;15.95;;;;;;;;;;5040344;28;20059;-64
2023/05/08 10:03:46;;;;;;;15.82;15.00;;;;;;;;;;5030958;28;20563;-63
2023/05/08 10:06:13;;;;;;;17.88;16.67;;;;;;;;;;5040467;28;20025;-64
2023/05/08 10:08:38;;;;;;;15.90;15.00;;;;;;;;;;5033231;28;20431;-64
2023/05/08 10:11:16;;;;;;;16.08;15.18;;;;;;;;;;5041144;28;20079;-64
2023/05/08 10:13:42;;;;;;;16.88;15.77;;;;;;;;;;5048463;28;20550;-64
2023/05/08 10:16:10;;;;;;;16.40;15.40;;;;;;;;;;5035688;28;20551;-64
2023/05/08 10:18:37;;;;;;;15.95;15.02;;;;;;;;;;5043880;28;20025;-64
2023/05/08 10:21:04;;;;;;;15.15;14.35;;;;;;;;;;5041888;28;20021;-64
2023/05/08 10:23:31;;;;;;;16.00;15.10;;;;;;;;;;5032100;28;20469;-64
2023/05/08 10:26:00;;;;;;;17.48;16.27;;;;;;;;;;5039558;28;20066;-63
2023/05/08 10:28:31;;;;;;;15.38;14.55;;;;;;;;;;5047184;28;20021;-64
2023/05/08 10:31:01;;;;;;;17.48;16.27;;;;;;;;;;5039058;28;20010;-63
2023/05/08 10:33:29;;;;;;;15.55;14.65;;;;;;;;;;5020356;28;20084;-63
2023/05/08 10:35:55;;;;;;;16.23;15.23;;;;;;;;;;5037803;28;20025;-64
2023/05/08 10:38:21;;;;;;;15.60;14.70;;;;;;;;;;5031658;28;20036;-64
2023/05/08 10:40:47;;;;;;;15.20;14.32;;;;;;;;;;5033599;28;20076;-64
2023/05/08 10:43:13;;;;;;;15.05;14.25;;;;;;;;;;5032475;28;20151;-65
2023/05/08 10:45:38;;;;;;;15.73;14.77;;;;;;;;;;5036836;28;20039;-64
2023/05/08 10:48:04;;;;;;;16.17;15.18;;;;;;;;;;5038959;28;20532;-64
2023/05/08 10:50:35;;;;;;;14.75;13.95;;;;;;;;;;5036718;28;20088;-65
2023/05/08 10:53:10;;;;;;;15.90;14.90;;;;;;;;;;5038379;28;20045;-63
2023/05/08 10:55:37;;;;;;;14.52;13.73;;;;;;;;;;5042210;28;20022;-65
2023/05/08 10:58:05;;;;;;;16.02;15.02;;;;;;;;;;5041151;28;20033;-64
2023/05/08 11:00:51;;;;;;;15.45;14.55;;;;;;;;;;5037627;28;20055;-64
2023/05/08 11:03:17;;;;;;;15.35;14.45;;;;;;;;;;5033026;28;20029;-64
2023/05/08 11:05:46;;;;;;;15.55;14.65;;;;;;;;;;5031345;28;20458;-64
2023/05/08 11:08:16;;;;;;;14.55;13.75;;;;;;;;;;5035644;28;20075;-64
2023/05/08 11:10:42;;;;;;;15.35;14.45;;;;;;;;;;5047212;28;20017;-63
2023/05/08 11:13:08;;;;;;;14.85;14.00;;;;;;;;;;5044385;28;20014;-64
2023/05/08 11:15:37;;;;;;;14.88;14.05;;;;;;;;;;5043426;28;20024;-64
2023/05/08 11:18:07;;;;;;;15.05;14.15;;;;;;;;;;5031574;28;20524;-63
2023/05/08 11:20:53;;;;;;;15.45;14.45;;;;;;;;;;5041121;28;20025;-64
2023/05/08 11:23:26;;;;;;;15.80;14.82;;;;;;;;;;5035180;28;20116;-64
2023/05/08 11:26:04;;;;;;;14.18;13.45;;;;;;;;;;5033467;28;20026;-65
2023/05/08 11:28:30;;;;;;;15.40;14.50;;;;;;;;;;5036440;28;20017;-65
2023/05/08 11:30:56;;;;;;;15.90;14.90;;;;;;;;;;5030390;28;20668;-64
2023/05/08 11:33:22;;;;;;;15.48;14.57;;;;;;;;;;5020318;28;20025;-65
2023/05/08 11:35:50;;;;;;;14.70;13.90;;;;;;;;;;5034478;28;20032;-65
2023/05/08 11:38:22;;;;;;;15.02;14.13;;;;;;;;;;5030988;28;20025;-64
2023/05/08 11:40:52;;;;;;;15.20;14.30;;;;;;;;;;5030363;28;20389;-64
2023/05/08 11:43:25;;;;;;;15.05;14.20;;;;;;;;;;5041815;28;20060;-64
2023/05/08 11:45:51;;;;;;;14.13;13.43;;;;;;;;;;5026333;28;20020;-64
2023/05/08 11:48:17;;;;;;;16.00;15.00;;;;;;;;;;5044339;28;20021;-64
2023/05/08 11:50:43;;;;;;;14.52;13.73;;;;;;;;;;5036102;28;20020;-64
2023/05/08 11:53:08;;;;;;;14.90;14.10;;;;;;;;;;5046902;28;20021;-65
2023/05/08 11:55:34;;;;;;;15.57;14.57;;;;;;;;;;5043357;28;20025;-63
2023/05/08 11:57:59;;;;;;;15.45;14.55;;;;;;;;;;5033518;28;20021;-64
2023/05/08 12:00:24;;;;;;;14.40;13.60;;;;;;;;;;5036062;28;20049;-64
2023/05/08 12:02:49;;;;;;;15.13;14.23;;;;;;;;;;5038597;28;20026;-64
2023/05/08 12:05:24;;;;;;;14.35;13.55;;;;;;;;;;5040477;28;20072;-64
2023/05/08 12:07:50;;;;;;;15.20;14.30;;;;;;;;;;5037269;28;20112;-64
2023/05/08 12:10:15;;;;;;;14.35;13.55;;;;;;;;;;5045416;28;20087;-64
2023/05/08 12:12:41;;;;;;;15.90;14.90;;;;;;;;;;5043604;28;20021;-64
2023/05/08 12:15:13;;;;;;;17.10;15.88;;;;;;;;;;5036898;28;20017;-63
2023/05/08 12:17:39;;;;;;;15.25;14.35;;;;;;;;;;5042865;28;20029;-64
2023/05/08 12:20:12;;;;;;;15.68;14.68;;;;;;;;;;5049808;28;20360;-63
2023/05/08 12:22:38;;;;;;;15.00;14.10;;;;;;;;;;5047035;28;20037;-64
2023/05/08 12:25:05;;;;;;;14.18;13.40;;;;;;;;;;5039892;28;20495;-64
2023/05/08 12:27:30;;;;;;;14.60;13.80;;;;;;;;;;5034877;28;20380;-64
2023/05/08 12:29:56;;;;;;;14.27;13.50;;;;;;;;;;5043718;28;20080;-64
2023/05/08 12:32:21;;;;;;;14.43;13.63;;;;;;;;;;5033940;28;20029;-64
2023/05/08 12:34:47;;;;;;;14.30;13.50;;;;;;;;;;5032580;28;20029;-64
2023/05/08 12:37:23;;;;;;;14.40;13.60;;;;;;;;;;5037848;28;20075;-64
2023/05/08 12:39:48;;;;;;;13.95;13.23;;;;;;;;;;5034973;28;20064;-64
2023/05/08 12:42:13;;;;;;;15.07;14.18;;;;;;;;;;5033918;28;20758;-64
2023/05/08 12:44:39;;;;;;;14.20;13.40;;;;;;;;;;5035783;28;20017;-64
2023/05/08 12:47:05;;;;;;;14.30;13.50;;;;;;;;;;5029716;28;20020;-64
2023/05/08 12:49:31;;;;;;;14.88;13.98;;;;;;;;;;5045919;28;20056;-64
2023/05/08 12:52:04;;;;;;;15.00;14.10;;;;;;;;;;5047221;28;20142;-64
2023/05/08 12:54:33;;;;;;;14.73;13.90;;;;;;;;;;5052296;28;20049;-65
2023/05/08 12:56:58;;;;;;;14.40;13.60;;;;;;;;;;5033489;28;20108;-64
2023/05/08 12:59:27;;;;;;;15.30;14.35;;;;;;;;;;5034155;28;20179;-63
2023/05/08 13:01:53;;;;;;;14.52;13.73;;;;;;;;;;5031584;28;20037;-63
2023/05/08 13:04:18;;;;;;;15.48;14.48;;;;;;;;;;5028138;28;20018;-64
2023/05/08 13:06:53;;;;;;;15.55;14.55;;;;;;;;;;5027368;28;20013;-64
2023/05/08 13:09:19;;;;;;;14.93;14.02;;;;;;;;;;5030738;28;20137;-63
2023/05/08 13:11:44;;;;;;;14.70;13.90;;;;;;;;;;5034320;28;20100;-63
2023/05/08 13:14:09;;;;;;;15.77;14.77;;;;;;;;;;5036709;28;20056;-65
2023/05/08 13:16:42;;;;;;;15.95;14.95;;;;;;;;;;5034189;28;20139;-64
2023/05/08 13:19:07;;;;;;;15.93;14.88;;;;;;;;;;5032680;28;20036;-64
2023/05/08 13:21:32;;;;;;;14.13;13.32;;;;;;;;;;5024654;28;20101;-63
2023/05/08 13:23:57;;;;;;;15.43;14.50;;;;;;;;;;5040085;28;20013;-63
2023/05/08 13:26:24;;;;;;;16.13;15.05;;;;;;;;;;5038522;28;20024;-64
2023/05/08 13:28:50;;;;;;;15.20;14.30;;;;;;;;;;5044491;28;20488;-64
2023/05/08 13:31:15;;;;;;;15.10;14.20;;;;;;;;;;5033288;28;20021;-64
2023/05/08 13:33:40;;;;;;;15.80;14.80;;;;;;;;;;5030233;28;20033;-65
2023/05/08 13:36:06;;;;;;;15.73;14.73;;;;;;;;;;5032623;28;20534;-63
2023/05/08 13:38:33;;;;;;;14.35;13.55;;;;;;;;;;5035540;28;20021;-64
2023/05/08 13:40:58;;;;;;;14.80;13.90;;;;;;;;;;5039091;28;20025;-65
2023/05/08 13:43:23;;;;;;;15.20;14.30;;;;;;;;;;5044134;28;20636;-64
2023/05/08 13:45:49;;;;;;;14.75;13.93;;;;;;;;;;5032742;28;20473;-63
2023/05/08 13:48:14;;;;;;;15.02;14.13;;;;;;;;;;5036851;28;20031;-64
2023/05/08 13:50:39;;;;;;;16.20;15.10;;;;;;;;;;5030951;28;20017;-63
2023/05/08 13:53:05;;;;;;;15.70;14.70;;;;;;;;;;5031999;28;20385;-64
2023/05/08 13:55:30;;;;;;;16.25;15.15;;;;;;;;;;5033042;28;20432;-65
2023/05/08 13:57:56;;;;;;;15.18;14.27;;;;;;;;;;5032580;28;20473;-64
2023/05/08 14:00:21;;;;;;;14.35;13.55;;;;;;;;;;5036537;28;20125;-63
2023/05/08 14:02:47;;;;;;;14.55;13.75;;;;;;;;;;5031193;28;20087;-63
2023/05/08 14:05:12;;;;;;;14.93;14.02;;;;;;;;;;5036004;28;20021;-65
2023/05/08 14:07:37;;;;;;;14.30;13.50;;;;;;;;;;5031688;28;20512;-63
2023/05/08 14:10:03;;;;;;;16.52;15.43;;;;;;;;;;5039515;28;20064;-63
2023/05/08 14:12:28;;;;;;;14.07;13.30;;;;;;;;;;5028037;28;20025;-64
2023/05/08 14:14:54;;;;;;;16.20;15.15;;;;;;;;;;5039304;28;20488;-64
2023/05/08 14:17:19;;;;;;;15.60;14.60;;;;;;;;;;5036174;28;20052;-65